createdAt,value
2022-10-30T00:00:50.207Z,29.35
2022-10-30T00:03:18.206Z,32.20
2022-10-30T00:05:47.655Z,29.77
2022-10-30T00:08:16.915Z,29.90
2022-10-30T00:10:44.847Z,31.73
2022-10-30T00:13:13.976Z,31.17
2022-10-30T00:15:48.347Z,33.10
2022-10-30T00:18:16.034Z,31.80
2022-10-30T00:20:43.282Z,30.70
2022-10-30T00:23:10.573Z,30.52
2022-10-30T00:25:37.932Z,32.25
2022-10-30T00:28:07.265Z,32.00
2022-10-30T00:30:35.793Z,34.25
2022-10-30T00:33:03.931Z,32.63
2022-10-30T00:35:31.774Z,30.38
2022-10-30T00:38:00.895Z,29.08
2022-10-30T00:40:28.780Z,26.85
2022-10-30T00:42:56.062Z,31.23
2022-10-30T00:45:23.206Z,30.50
2022-10-30T00:47:56.174Z,30.52
2022-10-30T00:50:31.996Z,29.25
2022-10-30T00:53:08.417Z,29.38
2022-10-30T00:55:40.433Z,30.85
2022-10-30T00:58:11.181Z,29.70
2022-10-30T01:00:41.244Z,31.55
2022-10-30T01:03:09.828Z,29.15
2022-10-30T01:05:38.104Z,30.58
2022-10-30T01:08:05.761Z,30.98
2022-10-30T01:10:33.282Z,31.23
2022-10-30T01:13:02.467Z,29.25
2022-10-30T01:15:37.531Z,30.77
2022-10-30T01:18:32.529Z,27.00
2022-10-30T01:21:14.877Z,27.48
2022-10-30T01:24:14.323Z,26.67
2022-10-30T01:26:51.639Z,28.17
2022-10-30T01:29:35.515Z,27.63
2022-10-30T01:32:09.759Z,26.60
2022-10-30T01:34:45.997Z,27.20
2022-10-30T01:37:21.278Z,25.92
2022-10-30T01:39:48.894Z,30.05
2022-10-30T01:42:43.883Z,28.42
2022-10-30T01:47:50.562Z,28.17
2022-10-30T01:50:29.531Z,27.40
2022-10-30T01:53:14.336Z,26.25
2022-10-30T01:56:14.050Z,26.33
2022-10-30T01:58:52.144Z,26.05
2022-10-30T02:01:21.961Z,27.75
2022-10-30T02:03:49.603Z,27.45
2022-10-30T02:06:17.536Z,28.63
2022-10-30T02:08:44.700Z,24.90
2022-10-30T02:11:13.066Z,25.85
2022-10-30T02:13:43.075Z,25.67
2022-10-30T02:16:11.249Z,25.58
2022-10-30T02:18:38.765Z,25.55
2022-10-30T02:21:06.950Z,23.13
2022-10-30T02:23:34.929Z,23.77
2022-10-30T02:26:02.110Z,23.52
2022-10-30T02:28:29.321Z,25.77
2022-10-30T02:30:56.828Z,24.58
2022-10-30T02:33:25.275Z,24.48
2022-10-30T02:35:54.763Z,25.20
2022-10-30T02:38:21.961Z,24.88
2022-10-30T02:40:50.782Z,23.38
2022-10-30T02:43:18.347Z,23.38
2022-10-30T02:45:51.963Z,25.58
2022-10-30T02:48:20.056Z,25.30
2022-10-30T02:50:48.987Z,24.58
2022-10-30T02:53:16.318Z,25.30
2022-10-30T02:55:45.652Z,25.48
2022-10-30T02:58:12.918Z,25.08
2022-10-30T03:00:40.441Z,21.17
2022-10-30T03:03:07.876Z,21.83
2022-10-30T03:05:35.281Z,20.30
2022-10-30T03:08:02.921Z,21.63
2022-10-30T03:10:30.751Z,22.13
2022-10-30T03:12:59.689Z,23.33
2022-10-30T03:15:27.805Z,24.80
2022-10-30T03:17:55.772Z,22.92
2022-10-30T03:20:23.202Z,23.05
2022-10-30T03:22:50.435Z,22.67
2022-10-30T03:25:23.867Z,23.42
2022-10-30T03:27:55.177Z,23.95
2022-10-30T03:30:22.947Z,23.27
2022-10-30T03:32:50.147Z,23.67
2022-10-30T03:35:17.390Z,23.80
2022-10-30T03:37:44.593Z,24.10
2022-10-30T03:40:12.276Z,23.63
2022-10-30T03:42:41.456Z,22.75
2022-10-30T03:45:09.686Z,23.58
2022-10-30T03:47:40.667Z,24.38
2022-10-30T03:50:09.468Z,21.25
2022-10-30T03:52:37.139Z,22.38
2022-10-30T03:55:04.607Z,23.55
2022-10-30T03:57:31.946Z,20.83
2022-10-30T04:00:10.537Z,22.85
2022-10-30T04:02:58.102Z,20.60
2022-10-30T04:05:28.311Z,24.25
2022-10-30T04:07:59.416Z,23.65
2022-10-30T04:10:28.313Z,23.63
2022-10-30T04:13:02.894Z,21.30
2022-10-30T04:15:30.636Z,20.83
2022-10-30T04:17:58.561Z,22.38
2022-10-30T04:55:24.854Z,21.48
2022-10-30T04:57:55.782Z,20.70
2022-10-30T05:00:23.464Z,19.13
2022-10-30T05:02:50.680Z,19.42
2022-10-30T05:05:17.807Z,19.67
2022-10-30T05:07:45.143Z,19.25
2022-10-30T05:10:17.062Z,18.00
2022-10-30T05:12:45.735Z,20.70
2022-10-30T05:15:14.234Z,20.27
2022-10-30T05:17:41.951Z,20.77
2022-10-30T05:20:12.308Z,22.02
2022-10-30T05:22:42.138Z,21.25
2022-10-30T05:25:09.945Z,20.35
2022-10-30T05:27:37.257Z,19.88
2022-10-30T05:30:04.707Z,18.98
2022-10-30T05:32:32.016Z,16.70
2022-10-30T05:34:59.072Z,17.90
2022-10-30T05:37:26.434Z,16.48
2022-10-30T05:39:53.694Z,15.98
2022-10-30T05:42:26.052Z,16.40
2022-10-30T05:45:00.916Z,14.65
2022-10-30T05:47:30.271Z,15.57
2022-10-30T05:49:58.107Z,16.75
2022-10-30T05:52:27.132Z,14.65
2022-10-30T05:54:54.584Z,13.43
2022-10-30T05:57:33.311Z,16.27
2022-10-30T06:00:01.516Z,16.15
2022-10-30T06:02:30.017Z,13.85
2022-10-30T06:04:57.198Z,13.55
2022-10-30T06:07:25.019Z,13.20
2022-10-30T06:09:52.573Z,13.98
2022-10-30T06:12:26.782Z,15.13
2022-10-30T06:15:13.872Z,13.75
2022-10-30T06:17:41.128Z,12.55
2022-10-30T06:20:22.984Z,14.15
2022-10-30T06:23:10.746Z,14.38
2022-10-30T06:25:46.609Z,13.88
2022-10-30T06:28:20.724Z,14.60
2022-10-30T06:30:48.099Z,14.10
2022-10-30T06:33:15.442Z,12.25
2022-10-30T06:35:50.387Z,12.35
2022-10-30T06:38:19.023Z,11.80
2022-10-30T06:40:49.080Z,10.23
2022-10-30T06:43:32.292Z,8.18
2022-10-30T06:46:04.888Z,8.95
2022-10-30T06:48:34.280Z,8.05
2022-10-30T06:51:03.046Z,8.57
2022-10-30T06:53:33.447Z,8.52
2022-10-30T06:56:20.679Z,8.05
2022-10-30T06:59:05.062Z,8.13
2022-10-30T07:01:35.650Z,9.20
2022-10-30T07:04:15.597Z,8.95
2022-10-30T07:06:44.216Z,9.35
2022-10-30T07:09:11.469Z,8.38
2022-10-30T07:11:42.293Z,8.32
2022-10-30T07:14:29.769Z,7.72
2022-10-30T07:17:06.156Z,7.20
2022-10-30T07:19:33.427Z,7.90
2022-10-30T07:22:02.724Z,7.32
2022-10-30T07:24:33.783Z,9.23
2022-10-30T07:27:22.966Z,10.07
2022-10-30T07:30:03.819Z,11.68
2022-10-30T07:32:39.154Z,10.57
2022-10-30T07:35:26.345Z,10.82
2022-10-30T07:38:11.255Z,12.82
2022-10-30T07:40:54.041Z,13.15
2022-10-30T07:43:39.080Z,10.65
2022-10-30T07:46:27.046Z,12.48
2022-10-30T07:49:11.142Z,10.73
2022-10-30T07:51:43.202Z,10.85
2022-10-30T07:54:12.980Z,13.13
2022-10-30T07:56:41.267Z,13.30
2022-10-30T07:59:28.504Z,13.80
2022-10-30T08:02:12.213Z,12.77
2022-10-30T08:05:00.872Z,11.90
2022-10-30T08:07:48.514Z,12.75
2022-10-30T08:10:16.437Z,13.55
2022-10-30T08:12:48.386Z,11.55
2022-10-30T08:15:16.821Z,10.45
2022-10-30T08:17:46.834Z,11.95
2022-10-30T08:20:18.196Z,12.80
2022-10-30T08:22:49.192Z,11.02
2022-10-30T08:25:20.457Z,10.10
2022-10-30T08:27:55.999Z,10.68
2022-10-30T08:30:30.105Z,11.50
2022-10-30T08:33:03.049Z,10.93
2022-10-30T08:35:52.213Z,9.77
2022-10-30T08:38:20.058Z,10.02
2022-10-30T08:40:56.292Z,15.60
2022-10-30T08:43:25.431Z,11.93
2022-10-30T08:45:57.445Z,9.90
2022-10-30T08:48:25.750Z,13.55
2022-10-30T08:51:07.038Z,11.50
2022-10-30T08:53:43.114Z,12.65
2022-10-30T08:56:14.266Z,13.07
2022-10-30T08:58:51.762Z,14.27
2022-10-30T09:01:19.689Z,11.57
2022-10-30T09:04:06.791Z,11.50
2022-10-30T09:06:55.309Z,10.20
2022-10-30T09:09:42.763Z,11.23
2022-10-30T09:12:11.449Z,12.10
2022-10-30T09:14:43.556Z,11.07
2022-10-30T09:17:12.582Z,9.82
2022-10-30T09:22:26.542Z,10.15
2022-10-30T09:24:54.930Z,11.45
2022-10-30T09:27:46.568Z,10.32
2022-10-30T09:30:15.622Z,12.13
2022-10-30T09:32:46.672Z,12.93
2022-10-30T09:35:19.876Z,11.48
2022-10-30T09:37:47.246Z,11.63
2022-10-30T09:40:23.668Z,12.10
2022-10-30T09:42:52.763Z,10.77
2022-10-30T09:45:30.067Z,10.13
2022-10-30T09:48:01.859Z,11.27
2022-10-30T09:50:37.235Z,10.75
2022-10-30T09:53:11.681Z,12.43
2022-10-30T09:55:42.453Z,12.68
2022-10-30T09:58:30.645Z,12.00
2022-10-30T10:01:26.784Z,12.77
2022-10-30T10:04:23.783Z,12.38
2022-10-30T10:07:21.781Z,13.60
2022-10-30T10:10:00.287Z,12.60
2022-10-30T10:12:40.442Z,14.13
2022-10-30T10:15:35.037Z,14.07
2022-10-30T10:18:04.903Z,13.15
2022-10-30T10:20:37.603Z,14.00
2022-10-30T10:23:17.203Z,13.02
2022-10-30T10:25:52.874Z,13.75
2022-10-30T10:28:30.662Z,13.52
2022-10-30T10:31:13.130Z,13.48
2022-10-30T10:33:59.867Z,13.82
2022-10-30T10:36:33.976Z,13.15
2022-10-30T10:39:15.861Z,14.25
2022-10-30T10:41:52.556Z,14.68
2022-10-30T10:44:45.946Z,13.30
2022-10-30T10:47:15.189Z,12.68
2022-10-30T10:50:05.923Z,13.55
2022-10-30T10:52:41.028Z,13.98
2022-10-30T10:55:18.233Z,13.57
2022-10-30T10:57:47.036Z,13.25
2022-10-30T11:00:18.291Z,14.05
2022-10-30T11:02:50.814Z,13.20
2022-10-30T11:05:39.133Z,12.88
2022-10-30T11:08:28.080Z,14.32
2022-10-30T11:11:05.952Z,14.70
2022-10-30T11:13:40.429Z,14.90
2022-10-30T11:16:30.776Z,13.02
2022-10-30T11:19:01.504Z,13.15
2022-10-30T11:21:33.348Z,13.30
2022-10-30T11:24:02.640Z,15.05
2022-10-30T11:26:34.735Z,14.73
2022-10-30T11:29:14.026Z,15.20
2022-10-30T11:31:45.223Z,15.05
2022-10-30T11:34:25.810Z,16.25
2022-10-30T11:36:54.470Z,15.77
2022-10-30T11:39:25.322Z,17.27
2022-10-30T11:42:14.039Z,16.10
2022-10-30T11:44:49.841Z,16.55
2022-10-30T11:47:38.899Z,15.50
2022-10-30T11:50:16.986Z,15.63
2022-10-30T11:52:44.752Z,14.30
2022-10-30T11:55:19.305Z,15.32
2022-10-30T11:57:57.248Z,15.15
2022-10-30T12:00:28.219Z,15.65
2022-10-30T12:03:01.014Z,16.25
2022-10-30T12:05:50.520Z,16.02
2022-10-30T12:08:22.219Z,16.48
2022-10-30T12:11:06.055Z,17.05
2022-10-30T12:13:41.495Z,18.42
2022-10-30T12:16:19.091Z,16.05
2022-10-30T12:18:58.701Z,17.70
2022-10-30T12:21:29.806Z,16.25
2022-10-30T12:24:03.583Z,17.10
2022-10-30T12:26:36.894Z,16.87
2022-10-30T12:29:20.931Z,17.35
2022-10-30T12:31:56.991Z,16.15
2022-10-30T12:34:46.239Z,16.83
2022-10-30T12:37:35.211Z,15.73
2022-10-30T12:40:07.205Z,15.75
2022-10-30T12:42:41.807Z,16.00
2022-10-30T12:45:32.473Z,15.68
2022-10-30T12:48:09.183Z,15.15
2022-10-30T12:50:45.654Z,16.38
2022-10-30T12:53:32.935Z,16.90
2022-10-30T12:56:08.980Z,17.73
2022-10-30T12:58:50.677Z,16.65
2022-10-30T13:01:46.509Z,17.15
2022-10-30T13:04:27.765Z,18.20
2022-10-30T13:07:18.691Z,17.73
2022-10-30T13:10:15.051Z,17.70
2022-10-30T13:12:47.353Z,16.25
2022-10-30T13:15:37.833Z,15.52
2022-10-30T13:18:17.881Z,16.85
2022-10-30T13:20:58.302Z,15.93
2022-10-30T13:23:36.140Z,16.25
2022-10-30T13:26:23.550Z,17.58
2022-10-30T13:29:30.199Z,16.73
2022-10-30T13:32:18.409Z,17.08
2022-10-30T13:35:17.985Z,17.98
2022-10-30T13:38:05.152Z,19.33
2022-10-30T13:40:42.749Z,19.17
2022-10-30T13:43:29.462Z,18.30
2022-10-30T13:46:05.710Z,19.02
2022-10-30T13:48:52.824Z,20.00
2022-10-30T13:51:21.350Z,19.35
2022-10-30T13:53:56.074Z,18.75
2022-10-30T13:56:23.561Z,17.67
2022-10-30T13:59:19.770Z,20.33
2022-10-30T14:01:55.416Z,17.75
2022-10-30T14:04:36.451Z,17.98
2022-10-30T14:07:33.082Z,19.27
2022-10-30T14:10:14.234Z,19.67
2022-10-30T14:12:46.543Z,19.98
2022-10-30T14:15:21.074Z,19.65
2022-10-30T14:20:35.286Z,20.17
2022-10-30T14:23:26.067Z,19.98
2022-10-30T14:26:14.368Z,19.38
2022-10-30T14:28:44.966Z,20.08
2022-10-30T14:31:17.665Z,20.08
2022-10-30T14:33:46.725Z,17.80
2022-10-30T14:36:34.125Z,20.25
2022-10-30T14:39:21.211Z,19.13
2022-10-30T14:42:01.187Z,20.33
2022-10-30T14:44:43.378Z,20.27
2022-10-30T14:47:11.904Z,19.55
2022-10-30T14:49:57.697Z,19.08
2022-10-30T14:52:53.988Z,19.13
2022-10-30T14:55:56.732Z,19.42
2022-10-30T14:58:29.345Z,20.30
2022-10-30T15:01:24.143Z,19.02
2022-10-30T15:04:12.211Z,19.80
2022-10-30T15:06:40.585Z,20.23
2022-10-30T15:09:31.146Z,20.58
2022-10-30T15:12:09.768Z,19.92
2022-10-30T15:14:53.598Z,21.75
2022-10-30T15:17:24.977Z,22.40
2022-10-30T15:19:52.660Z,21.63
2022-10-30T15:22:22.471Z,22.20
2022-10-30T15:24:51.981Z,21.25
2022-10-30T15:27:22.443Z,23.30
2022-10-30T15:29:56.216Z,22.33
2022-10-30T15:32:25.835Z,22.70
2022-10-30T15:34:55.300Z,23.88
2022-10-30T15:37:25.366Z,21.40
2022-10-30T15:40:20.979Z,23.40
2022-10-30T15:42:50.818Z,23.05
2022-10-30T15:45:25.220Z,23.00
2022-10-30T15:48:04.509Z,23.40
2022-10-30T15:50:33.679Z,22.80
2022-10-30T15:53:01.597Z,26.30
2022-10-30T15:55:31.420Z,26.80
2022-10-30T15:58:04.967Z,26.67
2022-10-30T16:00:36.381Z,27.50
2022-10-30T16:03:05.378Z,29.70
2022-10-30T16:05:34.027Z,31.42
2022-10-30T16:08:03.405Z,33.67
2022-10-30T16:10:34.560Z,32.85
2022-10-30T16:13:03.769Z,30.77
2022-10-30T16:15:34.809Z,33.63
2022-10-30T16:18:07.978Z,32.70
2022-10-30T16:20:36.555Z,31.30
2022-10-30T16:23:05.251Z,31.80
2022-10-30T16:25:35.883Z,33.00
2022-10-30T16:28:04.967Z,32.70
2022-10-30T16:30:34.136Z,30.10
2022-10-30T16:33:01.877Z,32.75
2022-10-30T16:35:29.360Z,31.15
2022-10-30T16:37:57.045Z,34.50
2022-10-30T16:40:28.383Z,34.35
2022-10-30T16:43:00.100Z,34.78
2022-10-30T16:45:29.305Z,35.53
2022-10-30T16:48:08.173Z,36.90
2022-10-30T16:50:38.766Z,34.55
2022-10-30T16:53:07.565Z,34.35
2022-10-30T16:55:38.297Z,33.38
2022-10-30T16:58:05.643Z,34.85
2022-10-30T17:00:36.543Z,31.33
2022-10-30T17:03:12.180Z,33.92
2022-10-30T17:05:43.701Z,32.45
2022-10-30T17:08:17.977Z,32.08
2022-10-30T17:10:58.032Z,32.33
2022-10-30T17:13:37.342Z,33.00
2022-10-30T17:16:29.186Z,30.85
2022-10-30T17:18:58.868Z,32.38
2022-10-30T17:21:37.012Z,32.53
2022-10-30T17:24:04.778Z,32.15
2022-10-30T17:26:39.198Z,29.75
2022-10-30T17:29:06.483Z,31.92
2022-10-30T17:31:38.267Z,30.88
2022-10-30T17:34:12.918Z,33.92
2022-10-30T17:36:40.956Z,33.58
2022-10-30T17:39:08.647Z,32.30
2022-10-30T17:41:36.767Z,31.45
2022-10-30T17:44:04.842Z,32.15
2022-10-30T17:46:32.292Z,33.20
2022-10-30T17:49:00.246Z,32.20
2022-10-30T17:51:29.311Z,33.05
2022-10-30T17:53:56.432Z,31.40
2022-10-30T17:56:28.162Z,33.78
2022-10-30T17:58:55.507Z,33.83
2022-10-30T18:01:25.409Z,33.97
2022-10-30T18:03:55.661Z,33.30
2022-10-30T18:06:26.032Z,33.88
2022-10-30T18:08:53.846Z,33.15
2022-10-30T18:11:23.417Z,38.13
2022-10-30T18:13:52.246Z,34.55
2022-10-30T18:16:20.300Z,33.92
2022-10-30T18:18:48.128Z,37.92
2022-10-30T18:21:18.120Z,36.78
2022-10-30T18:23:52.360Z,35.88
2022-10-30T18:26:23.292Z,37.63
2022-10-30T18:28:50.538Z,38.25
2022-10-30T18:31:21.613Z,33.10
2022-10-30T18:33:49.658Z,37.50
2022-10-30T18:36:19.620Z,33.42
2022-10-30T18:38:47.361Z,32.65
2022-10-30T18:41:20.612Z,33.50
2022-10-30T18:43:48.174Z,32.33
2022-10-30T18:46:16.855Z,33.08
2022-10-30T18:48:45.593Z,31.30
2022-10-30T18:51:18.438Z,32.35
2022-10-30T18:53:51.967Z,31.67
2022-10-30T18:56:23.458Z,34.13
2022-10-30T18:58:54.926Z,30.52
2022-10-30T19:01:26.778Z,31.02
2022-10-30T19:03:54.025Z,32.15
2022-10-30T19:06:24.509Z,30.13
2022-10-30T19:08:51.870Z,28.15
2022-10-30T19:11:24.532Z,27.38
2022-10-30T19:13:54.399Z,29.83
2022-10-30T19:16:24.826Z,30.27
2022-10-30T19:18:52.179Z,30.88
2022-10-30T19:21:25.592Z,29.73
2022-10-30T19:23:54.701Z,30.38
2022-10-30T19:26:22.110Z,32.50
2022-10-30T19:28:49.191Z,32.15
2022-10-30T19:31:18.894Z,32.60
2022-10-30T19:33:51.228Z,30.95
2022-10-30T19:36:28.030Z,30.95
2022-10-30T19:38:56.291Z,32.78
2022-10-30T19:41:24.882Z,30.98
2022-10-30T19:43:53.054Z,31.08
2022-10-30T19:46:20.725Z,28.13
2022-10-30T19:48:57.290Z,26.67
2022-10-30T19:51:25.304Z,29.77
2022-10-30T19:53:53.728Z,30.23
2022-10-30T19:56:21.851Z,27.70
2022-10-30T19:58:49.451Z,28.27
2022-10-30T20:01:16.946Z,29.52
2022-10-30T20:03:44.436Z,28.25
2022-10-30T20:06:12.918Z,27.77
2022-10-30T20:08:40.572Z,29.17
2022-10-30T20:11:07.969Z,26.65
2022-10-30T20:13:35.504Z,29.77
2022-10-30T20:16:05.061Z,30.40
2022-10-30T20:18:35.226Z,30.20
2022-10-30T20:21:08.824Z,31.38
2022-10-30T20:23:36.515Z,29.02
2022-10-30T20:26:11.898Z,32.05
2022-10-30T20:28:41.944Z,30.00
2022-10-30T20:31:12.473Z,30.75
2022-10-30T20:33:39.782Z,32.08
2022-10-30T20:36:07.082Z,33.40
2022-10-30T20:38:34.914Z,31.88
2022-10-30T20:41:03.935Z,31.20
2022-10-30T20:43:34.943Z,30.98
2022-10-30T20:46:03.725Z,30.00
2022-10-30T20:48:32.408Z,31.60
2022-10-30T20:51:01.680Z,29.85
2022-10-30T20:53:29.839Z,29.15
2022-10-30T20:55:57.147Z,31.15
2022-10-30T20:58:24.431Z,30.85
2022-10-30T21:00:55.611Z,27.98
2022-10-30T21:03:24.215Z,29.67
2022-10-30T21:05:57.485Z,26.10
2022-10-30T21:08:26.010Z,25.05
2022-10-30T21:10:53.082Z,27.95
2022-10-30T21:13:20.211Z,24.88
2022-10-30T21:15:47.339Z,25.35
2022-10-30T21:18:14.689Z,24.30
2022-10-30T21:20:41.948Z,24.40
2022-10-30T21:23:10.389Z,26.15
2022-10-30T21:25:37.654Z,27.27
2022-10-30T21:28:05.061Z,25.45
2022-10-30T21:30:32.132Z,27.80
2022-10-30T21:32:59.957Z,28.92
2022-10-30T21:35:28.286Z,28.20
2022-10-30T21:37:55.411Z,29.65
2022-10-30T21:40:22.886Z,26.40
2022-10-30T21:42:50.446Z,27.10
2022-10-30T21:45:17.687Z,28.60
2022-10-30T21:47:44.928Z,28.38
2022-10-30T21:50:12.885Z,28.45
2022-10-30T21:52:40.833Z,30.95
2022-10-30T21:55:08.922Z,30.25
2022-10-30T21:57:36.568Z,25.95
2022-10-30T22:00:07.122Z,27.77
2022-10-30T22:02:35.649Z,27.63
2022-10-30T22:05:02.816Z,25.58
2022-10-30T22:07:30.265Z,27.90
2022-10-30T22:09:57.357Z,27.70
2022-10-30T22:12:24.514Z,25.48
2022-10-30T22:14:51.553Z,26.05
2022-10-30T22:17:18.885Z,25.40
2022-10-30T22:19:46.043Z,26.85
2022-10-30T22:22:13.308Z,24.17
2022-10-30T22:24:40.565Z,25.65
2022-10-30T22:27:07.756Z,24.80
2022-10-30T22:29:35.140Z,25.15
2022-10-30T22:32:02.268Z,23.45
2022-10-30T22:34:29.794Z,24.98
2022-10-30T22:36:56.931Z,24.15
2022-10-30T22:39:24.224Z,25.63
2022-10-30T22:41:51.430Z,26.17
2022-10-30T22:44:19.130Z,25.92
2022-10-30T22:46:46.316Z,24.45
2022-10-30T22:49:13.440Z,24.75
2022-10-30T22:51:40.695Z,25.90
2022-10-30T22:54:11.169Z,24.75
2022-10-30T22:56:39.466Z,23.42
2022-10-30T22:59:10.363Z,22.67
2022-10-30T23:01:39.243Z,25.75
2022-10-30T23:04:08.360Z,23.77
2022-10-30T23:06:36.038Z,22.33
2022-10-30T23:09:07.676Z,22.88
2022-10-30T23:11:35.581Z,22.35
2022-10-30T23:14:02.691Z,23.23
2022-10-30T23:16:30.341Z,23.15
2022-10-30T23:18:59.734Z,24.13
2022-10-30T23:21:29.826Z,23.83
2022-10-30T23:23:57.567Z,21.60
2022-10-30T23:26:28.296Z,19.95
2022-10-30T23:28:56.677Z,21.27
2022-10-30T23:31:32.586Z,19.83
2022-10-30T23:34:01.237Z,18.00
2022-10-30T23:36:28.492Z,23.38
2022-10-30T23:38:58.201Z,21.08
2022-10-30T23:41:27.899Z,20.85
2022-10-30T23:43:56.521Z,20.48
2022-10-30T23:46:24.123Z,21.73
2022-10-30T23:48:51.327Z,23.42
2022-10-30T23:51:19.103Z,21.58
2022-10-30T23:53:46.446Z,22.33
2022-10-30T23:56:13.789Z,22.85
2022-10-30T23:58:44.603Z,19.77
